createdAt,value
2022-10-24T00:04:29.016Z,15.6
2022-10-24T00:10:18.446Z,15.7
2022-10-24T00:16:10.127Z,15.7
2022-10-24T00:22:01.882Z,15.6
2022-10-24T00:27:53.157Z,15.7
2022-10-24T00:33:46.656Z,15.7
2022-10-24T00:39:42.229Z,15.6
2022-10-24T00:45:33.602Z,15.6
2022-10-24T00:51:24.348Z,15.6
2022-10-24T00:57:15.647Z,15.5
2022-10-24T01:03:10.275Z,15.5
2022-10-24T01:09:03.757Z,15.6
2022-10-24T01:14:54.887Z,15.5
2022-10-24T01:20:51.087Z,15.5
2022-10-24T01:26:48.709Z,15.5
2022-10-24T01:32:49.654Z,15.6
2022-10-24T01:38:43.745Z,15.6
2022-10-24T01:45:48.894Z,15.5
2022-10-24T01:51:39.563Z,15.4
2022-10-24T01:57:33.899Z,15.4
2022-10-24T02:03:49.115Z,15.4
2022-10-24T02:16:18.218Z,15.4
2022-10-24T02:22:16.704Z,15.3
2022-10-24T02:28:09.036Z,15.4
2022-10-24T02:34:04.840Z,15.5
2022-10-24T02:39:58.282Z,15.4
2022-10-24T02:45:50.442Z,15.4
2022-10-24T02:51:43.013Z,15.4
2022-10-24T02:57:37.657Z,15.3
2022-10-24T03:03:33.528Z,15.3
2022-10-24T03:09:42.207Z,15.4
2022-10-24T03:15:34.927Z,15.4
2022-10-24T03:21:27.560Z,15.4
2022-10-24T03:27:20.084Z,15.3
2022-10-24T03:33:11.157Z,15.3
2022-10-24T03:39:02.435Z,15.3
2022-10-24T03:44:54.973Z,15.3
2022-10-24T03:50:48.820Z,15.3
2022-10-24T03:58:08.489Z,15.3
2022-10-24T04:04:00.357Z,15.3
2022-10-24T04:09:56.538Z,15.3
2022-10-24T04:15:50.708Z,15.3
2022-10-24T04:21:43.043Z,15.3
2022-10-24T04:27:36.720Z,15.3
2022-10-24T04:33:36.216Z,15.4
2022-10-24T04:39:41.113Z,15.3
2022-10-24T04:45:44.878Z,15.3
2022-10-24T04:51:42.352Z,15.3
2022-10-24T04:57:53.521Z,15.3
2022-10-24T05:03:47.278Z,15.3
2022-10-24T05:09:44.388Z,15.3
2022-10-24T05:15:40.560Z,15.2
2022-10-24T05:21:53.105Z,15.3
2022-10-24T05:27:55.611Z,15.2
2022-10-24T05:33:52.588Z,15.2
2022-10-24T05:39:44.968Z,15.2
2022-10-24T05:45:39.133Z,15.2
2022-10-24T05:51:33.843Z,15.3
2022-10-24T05:57:27.645Z,15.2
2022-10-24T06:03:33.081Z,15.3
2022-10-24T06:09:39.320Z,15.3
2022-10-24T06:15:30.726Z,15.3
2022-10-24T06:21:23.539Z,15.2
2022-10-24T06:27:22.453Z,15.3
2022-10-24T06:33:29.827Z,15.3
2022-10-24T06:39:29.220Z,15.3
2022-10-24T06:45:25.315Z,15.3
2022-10-24T06:51:18.242Z,15.3
2022-10-24T06:57:23.886Z,15.3
2022-10-24T07:03:15.430Z,15.4
2022-10-24T07:09:10.335Z,15.5
2022-10-24T07:15:18.426Z,15.5
2022-10-24T07:21:11.927Z,15.5
2022-10-24T07:27:10.842Z,15.6
2022-10-24T07:33:03.868Z,15.7
2022-10-24T07:38:59.508Z,15.8
2022-10-24T07:51:18.921Z,16
2022-10-24T07:57:13.484Z,16.1
2022-10-24T08:03:08.828Z,16.2
2022-10-24T08:09:09.088Z,16.2
2022-10-24T08:15:05.877Z,16.2
2022-10-24T08:21:07.057Z,16.3
2022-10-24T08:27:19.899Z,16.4
2022-10-24T08:33:22.233Z,16.5
2022-10-24T08:39:16.305Z,16.6
2022-10-24T08:45:12.493Z,16.6
2022-10-24T08:51:22.874Z,16.6
2022-10-24T08:57:25.485Z,16.6
2022-10-24T09:03:31.346Z,16.7
2022-10-24T09:10:02.688Z,16.9
2022-10-24T09:16:21.101Z,17
2022-10-24T09:22:20.987Z,17.1
2022-10-24T09:28:22.273Z,17.2
2022-10-24T09:34:22.117Z,17.3
2022-10-24T09:40:21.493Z,17.5
2022-10-24T09:46:34.088Z,17.6
2022-10-24T11:22:24.124Z,18.4
2022-10-24T12:41:28.422Z,19.5
2022-10-24T15:55:55.825Z,18
2022-10-24T16:08:25.523Z,17.9
2022-10-24T16:27:04.199Z,17.7
2022-10-24T16:33:19.850Z,17.6
2022-10-24T16:51:10.497Z,17.5
2022-10-24T16:57:33.598Z,17.5
2022-10-24T17:03:32.418Z,17.4
2022-10-24T17:15:31.795Z,17.4
2022-10-24T17:21:27.656Z,17.2
2022-10-24T17:27:19.214Z,17.2
2022-10-24T17:33:21.514Z,17.2
2022-10-24T17:39:30.230Z,17.1
2022-10-24T17:57:36.275Z,16.9
2022-10-24T18:03:43.428Z,16.8
2022-10-24T18:09:36.215Z,16.9
2022-10-24T18:15:31.198Z,16.9
2022-10-24T18:27:27.122Z,16.7
2022-10-24T18:45:02.210Z,16.6
2022-10-24T18:50:56.787Z,16.6
2022-10-24T18:56:47.833Z,16.7
2022-10-24T19:02:41.945Z,16.6
2022-10-24T19:08:34.731Z,16.5
2022-10-24T19:14:25.945Z,16.4
2022-10-24T19:20:19.543Z,16.3
2022-10-24T19:26:14.352Z,16.2
2022-10-24T19:32:05.482Z,16.1
2022-10-24T19:37:57.658Z,16
2022-10-24T19:43:48.993Z,16
2022-10-24T19:49:43.100Z,16
2022-10-24T19:55:36.607Z,16.1
2022-10-24T20:01:28.553Z,16
2022-10-24T20:07:21.916Z,15.9
2022-10-24T20:13:13.303Z,15.9
2022-10-24T20:19:06.959Z,15.9
2022-10-24T20:24:57.762Z,15.9
2022-10-24T20:30:50.224Z,15.8
2022-10-24T20:36:48.449Z,15.7
2022-10-24T20:54:29.269Z,15.6
2022-10-24T21:00:26.318Z,15.7
2022-10-24T21:06:28.200Z,15.6
2022-10-24T21:12:23.553Z,15.5
2022-10-24T21:18:34.001Z,15.5
2022-10-24T21:36:42.640Z,15.3
2022-10-24T21:42:40.716Z,15.4
2022-10-24T21:48:57.569Z,15.3
2022-10-24T21:55:57.880Z,15.1
2022-10-24T22:01:51.786Z,15.3
2022-10-24T22:07:48.845Z,15
2022-10-24T22:13:45.964Z,14.7
2022-10-24T22:25:57.747Z,14.8
2022-10-24T22:31:50.337Z,14.8
2022-10-24T22:37:46.038Z,14.8
2022-10-24T22:43:43.468Z,14.9
2022-10-24T22:49:46.335Z,14.8
2022-10-24T22:55:43.477Z,14.6
2022-10-24T23:01:34.381Z,14.4
2022-10-24T23:07:34.224Z,14.5
2022-10-24T23:13:27.737Z,14.4
2022-10-24T23:21:58.658Z,14.5
2022-10-24T23:35:47.668Z,14.3
